Time;durP1;ratioP1;P1;durP2;ratioP2;P2;SDS_P1;SDS_P2;PMS_P1;PMS_P2;Temp;Humidity;BMP_temperature;BMP_pressure;BME280_temperature;BME280_humidity;BME280_pressure;Samples;Min_cycle;Max_cycle;Signal;HPM_P1;HPM_P2
2021/01/09 00:00:26;;;;;;;10.73;7.43;;;8.40;61.10;;;;;;5135176;27;20466;-51
2021/01/09 00:02:54;;;;;;;10.13;7.23;;;8.40;61.00;;;;;;5135583;27;20534;-49
2021/01/09 00:05:21;;;;;;;9.67;7.00;;;8.30;61.70;;;;;;5135784;27;20499;-53
2021/01/09 00:07:48;;;;;;;13.73;8.00;;;8.40;60.80;;;;;;5128174;27;20470;-52
2021/01/09 00:10:16;;;;;;;14.13;7.87;;;8.40;61.30;;;;;;5135249;27;20495;-51
2021/01/09 00:12:43;;;;;;;11.93;7.37;;;8.40;60.90;;;;;;5135800;27;20475;-50
2021/01/09 00:15:10;;;;;;;11.70;7.03;;;8.40;61.00;;;;;;5135060;27;20504;-52
2021/01/09 00:17:38;;;;;;;11.73;6.83;;;8.40;61.20;;;;;;5135447;27;20470;-50
2021/01/09 00:20:07;;;;;;;12.43;7.80;;;8.30;61.20;;;;;;5134861;27;20470;-53
2021/01/09 00:22:34;;;;;;;11.33;7.23;;;8.30;61.20;;;;;;5135676;27;20455;-50
2021/01/09 00:25:02;;;;;;;13.27;8.10;;;8.30;61.30;;;;;;5123599;27;20428;-52
2021/01/09 00:27:30;;;;;;;12.37;6.90;;;8.30;61.20;;;;;;5114664;28;20488;-53
2021/01/09 00:29:57;;;;;;;9.83;6.97;;;8.30;61.30;;;;;;5114149;28;20493;-53
2021/01/09 00:32:23;;;;;;;10.73;6.90;;;8.30;61.40;;;;;;5115004;28;20444;-53
2021/01/09 00:34:50;;;;;;;11.10;7.53;;;8.30;61.40;;;;;;5128254;27;20463;-51
2021/01/09 00:37:18;;;;;;;10.47;7.37;;;8.30;61.40;;;;;;5135316;27;20435;-52
2021/01/09 00:39:46;;;;;;;11.53;7.30;;;8.20;61.90;;;;;;5134650;27;20495;-53
2021/01/09 00:42:12;;;;;;;17.73;8.27;;;8.20;61.60;;;;;;5134934;27;20451;-52
2021/01/09 00:44:39;;;;;;;20.37;8.03;;;8.10;61.70;;;;;;5133530;27;20485;-53
2021/01/09 00:47:06;;;;;;;10.43;7.30;;;8.10;61.50;;;;;;5133555;27;20431;-49
2021/01/09 00:49:33;;;;;;;9.40;6.70;;;8.00;61.50;;;;;;5132823;27;20459;-50
2021/01/09 00:52:00;;;;;;;7.93;6.37;;;7.90;61.40;;;;;;5130893;27;20474;-51
2021/01/09 00:54:28;;;;;;;10.53;7.30;;;8.00;61.60;;;;;;5132927;27;20473;-53
2021/01/09 00:56:55;;;;;;;9.90;7.00;;;8.00;61.60;;;;;;5130249;27;20450;-51
2021/01/09 00:59:23;;;;;;;9.67;6.50;;;8.00;61.80;;;;;;5132201;27;20523;-49
2021/01/09 01:01:51;;;;;;;11.73;7.90;;;7.90;61.90;;;;;;5133588;27;20507;-51
2021/01/09 01:04:18;;;;;;;9.60;6.20;;;7.80;62.20;;;;;;5134339;27;20431;-50
2021/01/09 01:06:45;;;;;;;12.33;7.10;;;7.70;62.20;;;;;;5134052;27;20464;-51
2021/01/09 01:09:11;;;;;;;11.50;7.37;;;7.70;62.60;;;;;;5132766;28;20511;-52
2021/01/09 01:11:40;;;;;;;10.30;7.00;;;7.80;62.40;;;;;;5132666;27;20430;-51
2021/01/09 01:14:07;;;;;;;9.40;6.63;;;7.80;62.50;;;;;;5132795;27;20447;-51
2021/01/09 01:16:34;;;;;;;11.53;7.30;;;7.90;62.40;;;;;;5133048;28;20427;-50
2021/01/09 01:19:01;;;;;;;14.83;7.73;;;7.80;62.20;;;;;;5130666;28;20443;-54
2021/01/09 01:21:28;;;;;;;11.90;7.47;;;7.80;62.40;;;;;;5132723;28;20554;-50
2021/01/09 01:23:55;;;;;;;10.37;7.23;;;7.90;62.30;;;;;;5132867;28;20465;-52
2021/01/09 01:26:22;;;;;;;10.80;7.57;;;7.90;62.60;;;;;;5129562;28;20462;-51
2021/01/09 01:28:50;;;;;;;13.47;7.73;;;7.80;61.70;;;;;;5132434;28;20443;-50
2021/01/09 01:31:16;;;;;;;49.20;23.77;;;7.90;61.70;;;;;;5133044;27;20428;-50
2021/01/09 01:33:44;;;;;;;66.17;31.47;;;7.90;61.50;;;;;;5132721;28;20432;-53
2021/01/09 01:36:10;;;;;;;79.23;36.17;;;7.80;61.50;;;;;;5132382;28;20435;-52
2021/01/09 01:38:38;;;;;;;37.70;18.70;;;7.80;61.60;;;;;;5132772;27;20459;-55
2021/01/09 01:41:05;;;;;;;24.27;13.80;;;7.70;61.70;;;;;;5132657;28;20505;-52
2021/01/09 01:43:32;;;;;;;24.00;10.90;;;7.70;61.40;;;;;;5132461;28;20496;-50
2021/01/09 01:46:00;;;;;;;17.63;9.10;;;7.60;61.50;;;;;;5132845;28;20491;-50
2021/01/09 01:48:27;;;;;;;13.13;8.50;;;7.60;61.40;;;;;;5132753;27;20492;-52
2021/01/09 01:50:54;;;;;;;14.90;7.20;;;7.60;61.20;;;;;;5132404;28;20461;-53
2021/01/09 01:53:21;;;;;;;12.07;7.83;;;7.60;61.30;;;;;;5132747;28;20431;-53
2021/01/09 01:55:48;;;;;;;16.47;8.77;;;7.50;61.40;;;;;;5133564;28;20427;-53
2021/01/09 01:58:16;;;;;;;13.40;7.80;;;7.40;61.70;;;;;;5130952;28;20509;-53
2021/01/09 02:00:45;;;;;;;14.60;8.60;;;7.50;61.70;;;;;;5132918;28;20462;-53
2021/01/09 02:03:15;;;;;;;11.73;7.27;;;7.50;61.90;;;;;;5131339;28;20432;-51
2021/01/09 02:05:46;;;;;;;14.20;7.03;;;7.50;61.90;;;;;;5133609;28;20435;-50
2021/01/09 02:08:13;;;;;;;15.13;7.90;;;7.40;61.80;;;;;;5133178;27;20457;-52
2021/01/09 02:10:41;;;;;;;14.10;8.03;;;7.40;62.10;;;;;;5125510;27;20439;-49
2021/01/09 02:13:11;;;;;;;12.43;7.57;;;7.50;61.90;;;;;;5113204;28;20436;-50
2021/01/09 02:15:39;;;;;;;13.30;8.40;;;7.50;61.90;;;;;;5113151;28;20598;-50
2021/01/09 02:18:06;;;;;;;13.57;7.70;;;7.40;61.90;;;;;;5112994;28;20450;-48
2021/01/09 02:20:34;;;;;;;11.67;7.60;;;7.40;61.90;;;;;;5113067;28;20459;-52
2021/01/09 02:23:03;;;;;;;11.83;7.07;;;7.50;61.90;;;;;;5108048;28;20475;-51
2021/01/09 02:25:30;;;;;;;10.47;7.70;;;7.40;61.90;;;;;;5116613;28;20446;-51
2021/01/09 02:27:57;;;;;;;10.97;7.63;;;7.40;61.80;;;;;;5120743;27;20439;-53
2021/01/09 02:30:25;;;;;;;9.37;6.47;;;7.30;61.90;;;;;;5136567;27;20482;-52
2021/01/09 02:32:55;;;;;;;13.50;7.47;;;7.30;62.00;;;;;;5137119;27;20494;-51
2021/01/09 02:35:22;;;;;;;10.40;7.10;;;7.30;62.10;;;;;;5137148;27;20495;-48
2021/01/09 02:37:49;;;;;;;11.77;7.63;;;7.20;62.10;;;;;;5124451;27;20508;-50
2021/01/09 02:40:17;;;;;;;13.93;7.37;;;7.10;62.30;;;;;;5116456;27;20507;-50
2021/01/09 02:42:44;;;;;;;12.67;7.73;;;7.10;62.50;;;;;;5133053;27;20431;-51
2021/01/09 02:45:11;;;;;;;14.50;7.50;;;6.90;63.00;;;;;;5129822;27;20448;-51
2021/01/09 02:47:39;;;;;;;13.93;7.60;;;6.90;63.90;;;;;;5127121;27;20470;-52
2021/01/09 02:50:07;;;;;;;10.80;7.40;;;6.70;63.50;;;;;;5121174;27;20431;-51
2021/01/09 02:52:34;;;;;;;13.40;8.10;;;6.90;63.50;;;;;;5116361;28;20505;-51
2021/01/09 02:55:03;;;;;;;11.97;7.30;;;6.90;63.60;;;;;;5116018;27;20440;-50
2021/01/09 02:57:31;;;;;;;13.63;7.60;;;6.90;63.30;;;;;;5116348;28;20428;-52
2021/01/09 02:59:58;;;;;;;12.93;7.10;;;7.00;62.90;;;;;;5115428;28;20436;-50
2021/01/09 03:02:25;;;;;;;13.27;7.27;;;6.90;63.20;;;;;;5116231;28;20412;-49
2021/01/09 03:04:52;;;;;;;11.87;7.07;;;6.90;63.20;;;;;;5133047;27;20434;-49
2021/01/09 03:07:19;;;;;;;11.67;7.63;;;6.90;63.20;;;;;;5136451;27;20439;-50
2021/01/09 03:09:46;;;;;;;13.30;7.53;;;6.90;63.10;;;;;;5135660;27;20499;-49
2021/01/09 03:12:13;;;;;;;12.00;7.03;;;7.00;63.10;;;;;;5136322;27;20464;-53
2021/01/09 03:14:40;;;;;;;13.90;7.53;;;7.10;62.90;;;;;;5136872;27;20439;-51
2021/01/09 03:17:08;;;;;;;12.33;7.50;;;7.10;62.40;;;;;;5136660;27;20426;-51
2021/01/09 03:19:35;;;;;;;10.80;7.20;;;7.20;62.00;;;;;;5136107;27;20435;-50
2021/01/09 03:22:02;;;;;;;15.10;7.20;;;7.20;61.90;;;;;;5135584;27;20483;-50
2021/01/09 03:24:29;;;;;;;12.10;7.13;;;7.10;61.90;;;;;;5136514;27;20508;-50
2021/01/09 03:26:56;;;;;;;12.40;7.73;;;7.00;62.20;;;;;;5136035;27;20523;-50
2021/01/09 03:29:23;;;;;;;10.73;7.10;;;6.90;62.40;;;;;;5135238;27;20434;-54
2021/01/09 03:31:50;;;;;;;13.00;7.50;;;6.80;62.60;;;;;;5136283;27;20442;-51
2021/01/09 03:34:17;;;;;;;12.23;7.40;;;6.90;62.50;;;;;;5130414;27;20527;-51
2021/01/09 03:36:44;;;;;;;13.47;8.27;;;7.00;62.40;;;;;;5135727;27;20475;-51
2021/01/09 03:39:11;;;;;;;10.80;7.60;;;7.00;62.50;;;;;;5135085;27;20467;-50
2021/01/09 03:41:39;;;;;;;11.00;6.93;;;7.00;62.50;;;;;;5135843;27;20471;-53
2021/01/09 03:44:06;;;;;;;12.93;7.97;;;6.90;62.70;;;;;;5132944;27;20452;-51
2021/01/09 03:46:33;;;;;;;14.40;7.67;;;6.80;63.30;;;;;;5134863;27;20451;-55
2021/01/09 03:49:01;;;;;;;13.70;7.63;;;6.80;63.30;;;;;;5129090;27;20447;-55
2021/01/09 03:51:29;;;;;;;10.20;6.87;;;6.70;63.40;;;;;;5114586;28;20432;-55
2021/01/09 03:53:55;;;;;;;16.90;9.33;;;6.70;63.60;;;;;;5115267;28;20464;-49
2021/01/09 03:56:22;;;;;;;13.97;7.53;;;6.80;63.60;;;;;;5115300;27;20509;-53
2021/01/09 03:58:49;;;;;;;10.40;7.30;;;6.90;63.50;;;;;;5114254;28;20439;-54
2021/01/09 04:01:16;;;;;;;9.10;6.00;;;7.10;63.20;;;;;;5114739;28;20478;-52
2021/01/09 04:03:43;;;;;;;11.37;7.37;;;7.00;62.90;;;;;;5114890;28;20470;-50
2021/01/09 04:06:11;;;;;;;9.23;6.73;;;7.00;62.90;;;;;;5115526;27;20463;-53
2021/01/09 04:08:38;;;;;;;12.20;6.83;;;7.00;62.80;;;;;;5114632;28;20447;-52
2021/01/09 04:11:05;;;;;;;12.33;7.27;;;7.00;62.90;;;;;;5114493;28;20467;-50
2021/01/09 04:13:32;;;;;;;10.60;6.40;;;7.10;62.70;;;;;;5115121;28;20440;-54
2021/01/09 04:16:02;;;;;;;15.00;7.13;;;7.00;62.80;;;;;;5114762;28;20448;-53
2021/01/09 04:18:30;;;;;;;11.50;7.33;;;6.90;62.90;;;;;;5114481;28;20463;-49
2021/01/09 04:20:57;;;;;;;10.03;6.70;;;6.80;63.10;;;;;;5114163;28;20516;-53
2021/01/09 04:23:24;;;;;;;10.27;6.33;;;6.90;63.30;;;;;;5121612;27;20461;-54
2021/01/09 04:25:51;;;;;;;10.20;6.70;;;6.90;63.30;;;;;;5135022;27;20508;-53
2021/01/09 04:28:19;;;;;;;7.97;5.80;;;6.90;63.50;;;;;;5134949;27;20447;-53
2021/01/09 04:30:46;;;;;;;11.30;6.30;;;7.00;63.20;;;;;;5134068;27;20439;-51
2021/01/09 04:33:13;;;;;;;11.87;6.77;;;6.90;63.10;;;;;;5134664;27;20477;-55
2021/01/09 04:35:40;;;;;;;10.93;6.93;;;6.90;63.20;;;;;;5134707;27;20439;-54
2021/01/09 04:38:07;;;;;;;7.90;6.13;;;7.00;63.20;;;;;;5134953;27;20431;-50
2021/01/09 04:40:36;;;;;;;9.40;6.20;;;6.90;63.20;;;;;;5133959;27;20463;-52
2021/01/09 04:43:03;;;;;;;9.87;5.73;;;7.00;63.40;;;;;;5134626;27;20443;-53
2021/01/09 04:45:29;;;;;;;11.60;6.17;;;7.10;63.10;;;;;;5134178;27;20498;-55
2021/01/09 04:47:57;;;;;;;9.50;5.80;;;7.10;63.00;;;;;;5134120;27;20459;-52
2021/01/09 04:50:24;;;;;;;12.73;6.27;;;7.00;63.00;;;;;;5133047;27;20439;-50
2021/01/09 04:52:51;;;;;;;8.00;5.77;;;7.10;62.80;;;;;;5132662;27;20435;-52
2021/01/09 04:55:19;;;;;;;7.53;5.43;;;7.00;62.80;;;;;;5125154;27;20443;-54
2021/01/09 04:57:47;;;;;;;7.37;5.60;;;7.00;62.60;;;;;;5126035;27;20495;-51
2021/01/09 05:00:15;;;;;;;10.57;6.40;;;6.90;62.60;;;;;;5125583;27;20542;-55
2021/01/09 05:02:42;;;;;;;7.60;5.53;;;6.90;62.60;;;;;;5134413;27;20476;-51
2021/01/09 05:05:11;;;;;;;9.00;5.60;;;7.00;62.40;;;;;;5134168;27;20435;-49
2021/01/09 05:07:37;;;;;;;7.77;5.77;;;7.00;62.20;;;;;;5127944;27;20436;-49
2021/01/09 05:10:05;;;;;;;8.27;5.60;;;7.00;62.10;;;;;;5113502;28;20432;-49
2021/01/09 05:12:33;;;;;;;7.97;6.00;;;7.00;62.10;;;;;;5113338;28;20485;-52
2021/01/09 05:15:01;;;;;;;10.10;5.93;;;6.90;61.90;;;;;;5114006;28;20437;-50
2021/01/09 05:17:29;;;;;;;8.77;5.33;;;6.90;61.90;;;;;;5113742;28;20448;-53
2021/01/09 05:19:57;;;;;;;6.30;5.50;;;6.90;61.80;;;;;;5113150;28;20457;-50
2021/01/09 05:22:24;;;;;;;9.73;5.30;;;6.90;61.80;;;;;;5113498;28;20482;-48
2021/01/09 05:24:52;;;;;;;7.03;5.60;;;6.80;61.70;;;;;;5113688;28;20431;-49
2021/01/09 05:27:19;;;;;;;8.13;5.73;;;6.90;61.70;;;;;;5113322;28;20444;-49
2021/01/09 05:29:53;;;;;;;12.37;6.73;;;6.80;61.60;;;;;;5112696;28;20493;-50
2021/01/09 05:32:21;;;;;;;7.60;5.57;;;6.80;61.60;;;;;;5113724;28;20439;-49
2021/01/09 05:34:49;;;;;;;7.27;5.50;;;6.70;61.50;;;;;;5113651;28;20471;-52
2021/01/09 05:37:17;;;;;;;9.47;5.90;;;6.60;61.80;;;;;;5113639;28;20436;-50
2021/01/09 05:39:51;;;;;;;8.43;5.70;;;6.70;61.80;;;;;;5112786;28;20508;-51
2021/01/09 05:42:20;;;;;;;7.23;5.20;;;6.70;61.80;;;;;;5113522;28;20483;-51
2021/01/09 05:44:47;;;;;;;8.30;5.60;;;6.70;61.80;;;;;;5113374;28;20440;-51
2021/01/09 05:47:15;;;;;;;8.37;5.80;;;6.60;61.80;;;;;;5113967;28;20504;-50
2021/01/09 05:49:43;;;;;;;6.67;4.90;;;6.70;61.80;;;;;;5112683;28;20435;-50
2021/01/09 05:52:10;;;;;;;6.60;5.27;;;6.70;61.80;;;;;;5113569;28;20462;-49
2021/01/09 05:54:38;;;;;;;7.77;5.43;;;6.70;61.80;;;;;;5113569;28;20463;-52
2021/01/09 05:57:05;;;;;;;11.17;5.97;;;6.60;62.80;;;;;;5113697;28;20419;-52
2021/01/09 05:59:32;;;;;;;10.37;5.70;;;6.60;62.30;;;;;;5116163;28;20431;-52
2021/01/09 06:02:00;;;;;;;8.97;6.20;;;6.60;62.30;;;;;;5134378;27;20466;-50
2021/01/09 06:04:30;;;;;;;8.60;5.70;;;6.50;62.60;;;;;;5138039;27;20435;-54
2021/01/09 06:07:04;;;;;;;7.50;5.13;;;6.60;62.60;;;;;;5137778;27;20443;-51
2021/01/09 06:09:33;;;;;;;9.03;5.57;;;6.60;62.60;;;;;;5131519;27;20500;-52
2021/01/09 06:12:04;;;;;;;7.77;5.93;;;6.60;62.50;;;;;;5117172;28;20467;-49
2021/01/09 06:14:31;;;;;;;9.87;6.23;;;6.60;62.40;;;;;;5117183;28;20436;-53
2021/01/09 06:16:58;;;;;;;7.60;5.47;;;6.60;62.40;;;;;;5116900;28;20460;-55
2021/01/09 06:19:25;;;;;;;8.03;5.63;;;6.50;62.60;;;;;;5116303;27;20475;-51
2021/01/09 06:21:53;;;;;;;9.13;5.40;;;6.50;62.50;;;;;;5116816;28;20472;-54
2021/01/09 06:24:22;;;;;;;10.70;5.43;;;6.50;62.30;;;;;;5116459;28;20457;-53
2021/01/09 06:26:49;;;;;;;7.77;5.40;;;6.60;62.40;;;;;;5117014;28;20440;-51
2021/01/09 06:29:22;;;;;;;8.23;5.97;;;6.50;62.60;;;;;;5116101;28;20439;-49
2021/01/09 06:31:51;;;;;;;9.77;6.50;;;6.50;62.50;;;;;;5116230;28;20621;-53
2021/01/09 06:34:22;;;;;;;12.53;6.70;;;6.40;62.30;;;;;;5116692;28;20467;-48
2021/01/09 06:36:53;;;;;;;17.37;7.17;;;6.30;62.50;;;;;;5116897;27;20440;-49
2021/01/09 06:39:20;;;;;;;10.90;6.70;;;6.40;62.50;;;;;;5116282;28;20547;-55
2021/01/09 06:41:48;;;;;;;8.97;6.27;;;6.50;62.20;;;;;;5116415;28;20491;-51
2021/01/09 06:44:15;;;;;;;13.33;7.03;;;6.40;62.20;;;;;;5116450;27;20448;-55
2021/01/09 06:46:42;;;;;;;14.53;8.70;;;6.40;62.30;;;;;;5116636;28;20440;-53
2021/01/09 06:49:16;;;;;;;10.23;6.40;;;6.30;62.60;;;;;;5115879;28;20502;-52
2021/01/09 06:51:54;;;;;;;13.50;6.50;;;6.50;62.40;;;;;;5116147;28;20500;-51
2021/01/09 06:54:45;;;;;;;8.67;5.80;;;6.50;62.10;;;;;;5116180;27;20440;-49
2021/01/09 06:57:19;;;;;;;10.53;6.00;;;6.50;61.70;;;;;;5108757;28;20436;-51
2021/01/09 06:59:47;;;;;;;8.10;6.27;;;6.50;61.50;;;;;;5115425;28;20536;-52
2021/01/09 07:02:22;;;;;;;12.43;5.33;;;6.50;61.50;;;;;;5115961;27;20527;-48
2021/01/09 07:05:19;;;;;;;10.30;6.30;;;6.40;61.60;;;;;;5116051;28;20435;-51
2021/01/09 07:07:52;;;;;;;9.77;6.03;;;6.40;61.70;;;;;;5115032;28;20455;-53
2021/01/09 07:10:21;;;;;;;10.53;6.60;;;6.30;61.70;;;;;;5114790;28;20485;-50
2021/01/09 07:12:50;;;;;;;10.03;6.23;;;6.20;61.90;;;;;;5132568;27;20567;-48
2021/01/09 07:15:17;;;;;;;11.00;5.97;;;6.20;61.90;;;;;;5136289;27;20468;-53
2021/01/09 07:17:48;;;;;;;11.43;6.20;;;6.30;61.70;;;;;;5136221;27;20464;-54
2021/01/09 07:20:15;;;;;;;9.33;5.50;;;6.20;61.60;;;;;;5129142;27;20436;-51
2021/01/09 07:22:45;;;;;;;7.43;5.63;;;6.20;61.40;;;;;;5134481;27;20479;-49
2021/01/09 07:25:12;;;;;;;8.40;5.67;;;6.10;61.50;;;;;;5134967;27;20477;-50
2021/01/09 07:27:41;;;;;;;10.27;6.33;;;6.20;61.70;;;;;;5127254;27;20504;-53
2021/01/09 07:30:13;;;;;;;8.57;5.63;;;6.20;61.40;;;;;;5134992;27;20439;-55
2021/01/09 07:32:42;;;;;;;8.67;6.00;;;6.20;61.30;;;;;;5136526;27;20431;-52
2021/01/09 07:35:09;;;;;;;9.17;5.97;;;6.20;61.00;;;;;;5136133;27;20480;-50
2021/01/09 07:37:40;;;;;;;12.57;6.00;;;6.20;61.00;;;;;;5133474;27;20435;-50
2021/01/09 07:40:18;;;;;;;9.53;6.20;;;6.20;61.00;;;;;;5114928;28;20439;-50
2021/01/09 07:42:45;;;;;;;10.27;6.10;;;6.20;60.90;;;;;;5114855;28;20463;-53
2021/01/09 07:45:15;;;;;;;14.63;6.37;;;6.20;61.20;;;;;;5115540;28;20432;-50
2021/01/09 07:47:44;;;;;;;9.37;6.40;;;6.10;61.30;;;;;;5115505;27;20443;-53
2021/01/09 07:50:12;;;;;;;9.23;6.20;;;6.00;61.70;;;;;;5114688;28;20432;-54
2021/01/09 07:52:39;;;;;;;11.83;5.90;;;6.00;61.70;;;;;;5114970;28;20420;-53
2021/01/09 07:55:07;;;;;;;10.70;6.10;;;6.00;61.90;;;;;;5115427;27;20432;-52
2021/01/09 07:57:35;;;;;;;7.17;5.70;;;6.10;61.80;;;;;;5135732;27;20455;-50
2021/01/09 08:00:10;;;;;;;9.40;5.70;;;6.10;62.10;;;;;;5135251;27;20459;-55
2021/01/09 08:02:39;;;;;;;8.57;5.53;;;6.20;62.10;;;;;;5135460;27;20493;-51
2021/01/09 08:05:08;;;;;;;10.30;6.73;;;6.10;62.30;;;;;;5124661;27;20447;-52
2021/01/09 08:07:36;;;;;;;9.53;6.30;;;6.20;62.50;;;;;;5114844;28;20496;-51
2021/01/09 08:10:20;;;;;;;9.60;6.17;;;6.20;62.60;;;;;;5114687;28;20432;-53
2021/01/09 08:12:47;;;;;;;11.93;6.50;;;6.20;62.80;;;;;;5114764;27;20501;-52
2021/01/09 08:15:14;;;;;;;10.40;6.40;;;6.30;62.80;;;;;;5114667;28;20471;-48
2021/01/09 08:17:42;;;;;;;11.03;6.23;;;6.40;62.70;;;;;;5114462;28;20451;-53
2021/01/09 08:20:10;;;;;;;10.37;6.30;;;6.40;62.70;;;;;;5113752;28;20489;-52
2021/01/09 08:22:37;;;;;;;11.77;6.80;;;6.40;62.60;;;;;;5114864;28;20476;-54
2021/01/09 08:25:11;;;;;;;11.67;6.80;;;6.40;62.60;;;;;;5114384;28;20500;-52
2021/01/09 08:27:45;;;;;;;10.27;6.47;;;6.50;62.60;;;;;;5114543;28;20465;-53
2021/01/09 08:30:13;;;;;;;12.17;7.27;;;6.50;62.50;;;;;;5113713;28;20471;-51
2021/01/09 08:32:41;;;;;;;9.20;5.90;;;6.60;62.30;;;;;;5113891;28;20481;-51
2021/01/09 08:35:10;;;;;;;11.03;6.93;;;6.60;62.30;;;;;;5114456;28;20440;-51
2021/01/09 08:37:37;;;;;;;9.70;6.60;;;6.60;62.20;;;;;;5114084;28;20447;-53
2021/01/09 08:40:15;;;;;;;11.90;6.90;;;6.70;62.20;;;;;;5113349;27;20444;-51
2021/01/09 08:42:55;;;;;;;11.30;7.20;;;6.80;62.10;;;;;;5113902;28;20517;-50
2021/01/09 08:45:43;;;;;;;10.60;6.60;;;6.90;61.90;;;;;;5114693;28;20500;-50
2021/01/09 08:48:12;;;;;;;12.87;7.40;;;6.90;61.90;;;;;;5114268;28;20475;-53
2021/01/09 08:51:00;;;;;;;12.33;8.07;;;6.90;61.90;;;;;;5113689;28;20456;-50
2021/01/09 08:53:27;;;;;;;10.43;7.60;;;6.90;62.00;;;;;;5111512;28;20454;-55
2021/01/09 08:55:58;;;;;;;14.57;8.20;;;6.80;62.30;;;;;;5114343;28;20431;-51
2021/01/09 08:58:25;;;;;;;16.13;7.90;;;6.80;62.50;;;;;;5114389;28;20451;-50
2021/01/09 09:00:54;;;;;;;13.57;8.13;;;6.80;62.50;;;;;;5113152;28;20468;-48
2021/01/09 09:03:22;;;;;;;14.30;8.00;;;6.80;63.00;;;;;;5114147;28;20436;-50
2021/01/09 09:05:49;;;;;;;14.03;8.00;;;6.80;63.00;;;;;;5113903;28;20440;-49
2021/01/09 09:08:16;;;;;;;12.67;7.73;;;6.90;62.90;;;;;;5113860;28;20435;-47
2021/01/09 09:10:45;;;;;;;18.83;8.10;;;6.90;62.70;;;;;;5113484;28;20440;-52
2021/01/09 09:13:22;;;;;;;13.17;7.70;;;6.90;62.60;;;;;;5114278;28;20452;-52
2021/01/09 09:15:49;;;;;;;12.60;7.30;;;6.90;62.60;;;;;;5114228;28;20439;-51
2021/01/09 09:18:16;;;;;;;11.77;7.00;;;7.00;62.50;;;;;;5113711;28;20442;-49
2021/01/09 09:20:48;;;;;;;11.43;7.10;;;7.20;62.30;;;;;;5113526;28;20432;-49
2021/01/09 09:23:19;;;;;;;13.60;7.20;;;7.40;61.70;;;;;;5113431;28;20533;-49
2021/01/09 09:25:46;;;;;;;12.50;7.00;;;7.40;61.40;;;;;;5113480;28;20444;-48
2021/01/09 09:28:15;;;;;;;12.80;7.23;;;7.30;61.30;;;;;;5113675;28;20432;-53
2021/01/09 09:30:42;;;;;;;8.07;6.67;;;7.30;61.70;;;;;;5112991;28;20461;-53
2021/01/09 09:33:13;;;;;;;13.70;6.87;;;7.30;61.80;;;;;;5121129;27;20439;-53
2021/01/09 09:35:39;;;;;;;9.67;6.90;;;7.40;61.70;;;;;;5138246;27;20442;-50
2021/01/09 09:38:10;;;;;;;12.97;7.10;;;7.30;61.60;;;;;;5138752;27;20443;-53
2021/01/09 09:40:37;;;;;;;10.63;6.87;;;7.30;61.80;;;;;;5137671;27;20495;-51
2021/01/09 09:43:11;;;;;;;10.90;7.13;;;7.40;61.50;;;;;;5122399;27;20484;-54
2021/01/09 09:45:38;;;;;;;8.40;6.10;;;7.40;61.60;;;;;;5117254;28;20444;-54
2021/01/09 09:48:06;;;;;;;11.50;7.17;;;7.40;61.20;;;;;;5117287;28;20520;-53
2021/01/09 09:50:34;;;;;;;11.20;7.13;;;7.40;61.50;;;;;;5117054;27;20498;-50
2021/01/09 09:53:02;;;;;;;10.67;7.10;;;7.60;61.20;;;;;;5117380;28;20431;-50
2021/01/09 09:55:30;;;;;;;15.33;8.80;;;7.60;61.30;;;;;;5117720;28;20527;-53
2021/01/09 09:58:06;;;;;;;16.80;9.13;;;7.60;61.00;;;;;;5117290;28;20539;-50
2021/01/09 10:00:41;;;;;;;19.10;9.73;;;7.80;61.10;;;;;;5116834;27;20447;-50
2021/01/09 10:03:08;;;;;;;15.67;10.47;;;8.10;61.70;;;;;;5117468;28;20479;-52
2021/01/09 10:05:35;;;;;;;15.50;10.60;;;8.30;60.80;;;;;;5117072;28;20500;-51
2021/01/09 10:08:12;;;;;;;13.90;8.50;;;8.60;60.50;;;;;;5119513;27;20436;-51
2021/01/09 10:10:40;;;;;;;12.43;8.20;;;8.90;60.00;;;;;;5136768;27;20501;-50
2021/01/09 10:13:07;;;;;;;12.73;8.13;;;9.00;59.60;;;;;;5138106;27;20437;-50
2021/01/09 10:15:34;;;;;;;16.63;7.83;;;9.20;59.30;;;;;;5137900;27;20430;-50
2021/01/09 10:18:01;;;;;;;9.40;7.10;;;9.50;58.80;;;;;;5137042;27;20452;-49
2021/01/09 10:20:28;;;;;;;8.47;6.63;;;10.00;57.30;;;;;;5136698;27;20435;-48
2021/01/09 10:22:55;;;;;;;11.30;7.30;;;10.00;56.80;;;;;;5137047;27;20459;-52
2021/01/09 10:25:22;;;;;;;10.17;7.77;;;10.20;56.40;;;;;;5137908;27;20439;-50
2021/01/09 10:27:51;;;;;;;16.70;8.00;;;10.50;56.10;;;;;;5136570;27;20499;-49
2021/01/09 10:30:19;;;;;;;10.43;7.30;;;10.80;55.50;;;;;;5136480;27;20439;-53
2021/01/09 10:32:46;;;;;;;11.50;7.63;;;11.40;54.90;;;;;;5137241;27;20445;-48
2021/01/09 10:35:13;;;;;;;11.93;7.83;;;11.40;54.10;;;;;;5136843;27;20514;-51
2021/01/09 10:37:40;;;;;;;11.50;9.00;;;11.30;54.50;;;;;;5136867;27;20438;-52
2021/01/09 10:40:08;;;;;;;12.57;9.13;;;11.40;54.40;;;;;;5136452;27;20428;-52
2021/01/09 10:42:35;;;;;;;14.23;8.47;;;11.70;54.10;;;;;;5137038;27;20503;-49
2021/01/09 10:45:03;;;;;;;9.73;7.43;;;11.60;53.90;;;;;;5120633;27;20428;-52
2021/01/09 10:47:30;;;;;;;12.90;9.60;;;11.70;53.50;;;;;;5116373;28;20524;-51
2021/01/09 10:49:57;;;;;;;10.30;8.53;;;11.50;53.00;;;;;;5115799;28;20431;-50
2021/01/09 10:52:24;;;;;;;16.73;8.67;;;11.40;53.20;;;;;;5119517;27;20442;-48
2021/01/09 10:54:51;;;;;;;15.67;9.77;;;11.20;53.40;;;;;;5137026;27;20441;-50
2021/01/09 10:57:18;;;;;;;19.33;10.07;;;11.20;53.80;;;;;;5136969;27;20439;-50
2021/01/09 10:59:45;;;;;;;15.67;8.80;;;11.30;54.00;;;;;;5136195;27;20512;-50
2021/01/09 11:02:13;;;;;;;17.43;9.80;;;11.40;53.60;;;;;;5135923;27;20519;-50
2021/01/09 11:04:40;;;;;;;30.27;15.83;;;11.70;53.40;;;;;;5136735;27;20419;-52
2021/01/09 11:07:07;;;;;;;17.50;10.93;;;12.10;53.10;;;;;;5136836;27;20520;-54
2021/01/09 11:09:34;;;;;;;25.00;14.00;;;12.20;52.60;;;;;;5136234;27;20507;-51
2021/01/09 11:12:01;;;;;;;22.20;12.67;;;12.60;52.00;;;;;;5136227;27;20488;-51
2021/01/09 11:14:28;;;;;;;20.70;10.73;;;12.90;52.50;;;;;;5136161;27;20442;-52
2021/01/09 11:16:55;;;;;;;15.70;9.30;;;13.20;53.90;;;;;;5136447;27;20449;-49
2021/01/09 11:19:24;;;;;;;15.57;8.70;;;13.30;53.00;;;;;;5134971;27;20449;-50
2021/01/09 11:21:51;;;;;;;13.37;8.00;;;13.80;52.60;;;;;;5136173;27;20729;-50
2021/01/09 11:24:17;;;;;;;10.27;6.87;;;13.90;51.30;;;;;;5136422;27;20435;-48
2021/01/09 11:26:44;;;;;;;9.50;7.00;;;14.00;49.90;;;;;;5136168;27;20475;-50
2021/01/09 11:29:11;;;;;;;7.87;6.23;;;14.60;50.40;;;;;;5134778;27;20443;-52
2021/01/09 11:31:38;;;;;;;7.10;5.77;;;15.50;49.10;;;;;;5136443;27;20547;-50
2021/01/09 11:34:05;;;;;;;7.50;5.60;;;15.00;48.30;;;;;;5135972;27;20526;-53
2021/01/09 11:36:33;;;;;;;5.30;4.70;;;16.70;48.20;;;;;;5136454;27;20477;-50
2021/01/09 11:39:00;;;;;;;6.90;5.37;;;17.70;46.40;;;;;;5135528;27;20506;-52
2021/01/09 11:41:27;;;;;;;6.67;5.33;;;15.80;45.30;;;;;;5135852;27;20435;-51
2021/01/09 11:43:54;;;;;;;5.40;4.70;;;15.70;47.00;;;;;;5136023;27;20443;-51
2021/01/09 11:46:26;;;;;;;4.83;4.33;;;15.90;46.00;;;;;;5125061;27;20435;-50
2021/01/09 11:48:53;;;;;;;4.07;3.70;;;16.00;45.60;;;;;;5114921;28;20446;-49
2021/01/09 11:51:23;;;;;;;4.17;3.50;;;15.90;44.90;;;;;;5115157;28;20496;-52
2021/01/09 11:53:51;;;;;;;4.20;3.80;;;15.10;46.20;;;;;;5114969;28;20447;-52
2021/01/09 11:56:21;;;;;;;4.33;3.80;;;14.50;46.00;;;;;;5114522;28;20440;-52
2021/01/09 11:58:48;;;;;;;4.10;3.80;;;13.90;47.90;;;;;;5114533;28;20501;-52
2021/01/09 12:01:16;;;;;;;5.47;3.63;;;13.30;48.80;;;;;;5115211;28;20524;-53
2021/01/09 12:03:42;;;;;;;4.73;3.33;;;13.50;48.30;;;;;;5121704;27;20475;-51
2021/01/09 12:06:10;;;;;;;3.80;3.50;;;13.50;48.80;;;;;;5135779;27;20442;-51
2021/01/09 12:08:37;;;;;;;6.17;3.60;;;13.70;47.90;;;;;;5135122;27;20439;-54
2021/01/09 12:11:04;;;;;;;4.23;3.47;;;13.70;47.60;;;;;;5134963;27;20434;-51
2021/01/09 12:13:32;;;;;;;4.30;3.80;;;13.50;47.60;;;;;;5134857;27;20496;-53
2021/01/09 12:16:00;;;;;;;4.47;3.47;;;13.50;47.70;;;;;;5135334;27;20431;-48
2021/01/09 12:18:27;;;;;;;3.60;3.30;;;13.50;47.60;;;;;;5135062;27;20451;-54
2021/01/09 12:20:54;;;;;;;3.30;3.03;;;14.20;46.70;;;;;;5131994;27;20447;-53
2021/01/09 12:23:21;;;;;;;3.60;3.30;;;16.20;44.50;;;;;;5114271;28;20483;-53
2021/01/09 12:25:47;;;;;;;5.13;2.93;;;17.50;42.00;;;;;;5114497;28;20432;-52
2021/01/09 12:28:15;;;;;;;3.70;3.40;;;18.90;41.00;;;;;;5114819;28;20479;-51
2021/01/09 12:30:42;;;;;;;3.90;3.23;;;19.70;38.30;;;;;;5113816;28;20485;-53
2021/01/09 12:33:09;;;;;;;6.70;6.00;;;20.00;37.90;;;;;;5114642;28;20411;-53
2021/01/09 12:35:37;;;;;;;4.90;4.33;;;19.10;37.30;;;;;;5114027;28;20432;-54
2021/01/09 12:38:04;;;;;;;7.07;5.20;;;18.30;37.80;;;;;;5114699;28;20443;-51
2021/01/09 12:40:31;;;;;;;4.50;4.10;;;16.80;39.40;;;;;;5114366;27;20444;-50
2021/01/09 12:42:58;;;;;;;6.37;4.30;;;18.10;39.20;;;;;;5114087;28;20479;-51
2021/01/09 12:45:26;;;;;;;4.60;3.43;;;20.80;36.70;;;;;;5114104;28;20497;-52
2021/01/09 12:47:53;;;;;;;3.67;3.37;;;23.20;33.20;;;;;;5114624;28;20440;-52
2021/01/09 12:50:20;;;;;;;3.53;3.20;;;24.30;31.70;;;;;;5113527;28;20410;-53
2021/01/09 12:52:47;;;;;;;2.90;2.70;;;25.40;30.00;;;;;;5114107;28;20492;-53